sensor_id;sensor_type;location;lat;lon;timestamp;P1;durP1;ratioP1;P2;durP2;ratioP2
85279;SDS011;75687;40.670;21.838;2024-03-02T00:00:05;5.20;;;3.50;;
85279;SDS011;75687;40.670;21.838;2024-03-02T00:03:01;7.30;;;2.80;;
85279;SDS011;75687;40.670;21.838;2024-03-02T00:05:33;9.40;;;2.60;;
85279;SDS011;75687;40.670;21.838;2024-03-02T00:08:04;6.40;;;2.60;;
85279;SDS011;75687;40.670;21.838;2024-03-02T00:10:38;6.80;;;2.60;;
85279;SDS011;75687;40.670;21.838;2024-03-02T00:13:09;3.80;;;2.70;;
85279;SDS011;75687;40.670;21.838;2024-03-02T00:15:45;5.50;;;3.20;;
85279;SDS011;75687;40.670;21.838;2024-03-02T00:18:19;6.20;;;3.50;;
85279;SDS011;75687;40.670;21.838;2024-03-02T00:20:53;5.80;;;2.50;;
85279;SDS011;75687;40.670;21.838;2024-03-02T00:23:25;4.50;;;2.10;;
85279;SDS011;75687;40.670;21.838;2024-03-02T00:25:58;7.70;;;3.40;;
85279;SDS011;75687;40.670;21.838;2024-03-02T00:28:29;6.20;;;2.30;;
85279;SDS011;75687;40.670;21.838;2024-03-02T00:31:03;4.50;;;3.30;;
85279;SDS011;75687;40.670;21.838;2024-03-02T00:33:34;5.00;;;2.70;;
85279;SDS011;75687;40.670;21.838;2024-03-02T00:36:05;3.30;;;2.30;;
85279;SDS011;75687;40.670;21.838;2024-03-02T00:38:41;4.50;;;2.20;;
85279;SDS011;75687;40.670;21.838;2024-03-02T00:41:17;5.40;;;2.20;;
85279;SDS011;75687;40.670;21.838;2024-03-02T00:43:59;4.30;;;3.00;;
85279;SDS011;75687;40.670;21.838;2024-03-02T00:46:33;7.10;;;2.60;;
85279;SDS011;75687;40.670;21.838;2024-03-02T00:49:03;5.00;;;2.20;;
85279;SDS011;75687;40.670;21.838;2024-03-02T00:51:35;5.40;;;2.60;;
85279;SDS011;75687;40.670;21.838;2024-03-02T00:54:07;6.90;;;2.80;;
85279;SDS011;75687;40.670;21.838;2024-03-02T00:56:38;5.20;;;2.60;;
85279;SDS011;75687;40.670;21.838;2024-03-02T00:59:09;4.50;;;3.00;;
85279;SDS011;75687;40.670;21.838;2024-03-02T01:01:39;6.20;;;2.60;;
85279;SDS011;75687;40.670;21.838;2024-03-02T01:04:10;7.50;;;3.20;;
85279;SDS011;75687;40.670;21.838;2024-03-02T01:06:42;10.50;;;3.10;;
85279;SDS011;75687;40.670;21.838;2024-03-02T01:09:12;10.60;;;3.10;;
85279;SDS011;75687;40.670;21.838;2024-03-02T01:11:42;7.80;;;2.90;;
85279;SDS011;75687;40.670;21.838;2024-03-02T01:14:13;8.40;;;2.60;;
85279;SDS011;75687;40.670;21.838;2024-03-02T01:16:43;7.70;;;3.00;;
85279;SDS011;75687;40.670;21.838;2024-03-02T01:19:14;9.90;;;2.60;;
85279;SDS011;75687;40.670;21.838;2024-03-02T01:21:45;3.90;;;2.70;;
85279;SDS011;75687;40.670;21.838;2024-03-02T01:24:16;6.00;;;2.80;;
85279;SDS011;75687;40.670;21.838;2024-03-02T01:26:46;10.30;;;3.30;;
85279;SDS011;75687;40.670;21.838;2024-03-02T01:29:16;6.50;;;3.90;;
85279;SDS011;75687;40.670;21.838;2024-03-02T01:31:47;9.70;;;4.10;;
85279;SDS011;75687;40.670;21.838;2024-03-02T01:34:19;10.30;;;4.10;;
85279;SDS011;75687;40.670;21.838;2024-03-02T01:36:50;8.80;;;3.50;;
85279;SDS011;75687;40.670;21.838;2024-03-02T01:39:21;7.10;;;3.40;;
85279;SDS011;75687;40.670;21.838;2024-03-02T01:41:52;8.50;;;2.60;;
85279;SDS011;75687;40.670;21.838;2024-03-02T01:44:23;5.30;;;2.40;;
85279;SDS011;75687;40.670;21.838;2024-03-02T01:46:54;7.00;;;2.30;;
85279;SDS011;75687;40.670;21.838;2024-03-02T01:49:24;4.80;;;2.70;;
85279;SDS011;75687;40.670;21.838;2024-03-02T01:51:54;11.80;;;3.70;;
85279;SDS011;75687;40.670;21.838;2024-03-02T01:54:25;9.20;;;2.40;;
85279;SDS011;75687;40.670;21.838;2024-03-02T01:56:56;6.30;;;2.90;;
85279;SDS011;75687;40.670;21.838;2024-03-02T01:59:27;5.40;;;2.70;;
85279;SDS011;75687;40.670;21.838;2024-03-02T02:01:57;6.90;;;3.30;;
85279;SDS011;75687;40.670;21.838;2024-03-02T02:04:28;6.10;;;2.70;;
85279;SDS011;75687;40.670;21.838;2024-03-02T02:06:59;8.20;;;3.00;;
85279;SDS011;75687;40.670;21.838;2024-03-02T02:09:29;6.60;;;3.20;;
85279;SDS011;75687;40.670;21.838;2024-03-02T02:12:00;6.60;;;2.80;;
85279;SDS011;75687;40.670;21.838;2024-03-02T02:14:31;6.90;;;2.40;;
85279;SDS011;75687;40.670;21.838;2024-03-02T02:17:02;5.30;;;2.50;;
85279;SDS011;75687;40.670;21.838;2024-03-02T02:19:33;4.70;;;2.40;;
85279;SDS011;75687;40.670;21.838;2024-03-02T02:22:04;5.60;;;3.20;;
85279;SDS011;75687;40.670;21.838;2024-03-02T02:24:34;6.00;;;4.10;;
85279;SDS011;75687;40.670;21.838;2024-03-02T02:27:05;7.60;;;3.40;;
85279;SDS011;75687;40.670;21.838;2024-03-02T02:29:35;8.70;;;2.80;;
85279;SDS011;75687;40.670;21.838;2024-03-02T02:32:07;7.20;;;2.70;;
85279;SDS011;75687;40.670;21.838;2024-03-02T02:34:38;5.20;;;2.30;;
85279;SDS011;75687;40.670;21.838;2024-03-02T02:37:08;6.70;;;2.40;;
85279;SDS011;75687;40.670;21.838;2024-03-02T02:39:38;5.20;;;2.00;;
85279;SDS011;75687;40.670;21.838;2024-03-02T02:42:09;5.50;;;2.60;;
85279;SDS011;75687;40.670;21.838;2024-03-02T02:44:39;3.60;;;2.00;;
85279;SDS011;75687;40.670;21.838;2024-03-02T02:47:10;8.00;;;2.30;;
85279;SDS011;75687;40.670;21.838;2024-03-02T02:49:40;3.50;;;2.10;;
85279;SDS011;75687;40.670;21.838;2024-03-02T02:52:11;4.60;;;2.70;;
85279;SDS011;75687;40.670;21.838;2024-03-02T02:54:41;3.60;;;1.90;;
85279;SDS011;75687;40.670;21.838;2024-03-02T02:57:12;6.50;;;2.60;;
85279;SDS011;75687;40.670;21.838;2024-03-02T02:59:42;6.50;;;2.30;;
85279;SDS011;75687;40.670;21.838;2024-03-02T03:02:15;8.60;;;3.40;;
85279;SDS011;75687;40.670;21.838;2024-03-02T03:04:45;7.50;;;2.70;;
85279;SDS011;75687;40.670;21.838;2024-03-02T03:07:15;8.70;;;4.00;;
85279;SDS011;75687;40.670;21.838;2024-03-02T03:09:45;9.40;;;3.70;;
85279;SDS011;75687;40.670;21.838;2024-03-02T03:12:16;13.30;;;5.50;;
85279;SDS011;75687;40.670;21.838;2024-03-02T03:14:47;8.60;;;3.80;;
85279;SDS011;75687;40.670;21.838;2024-03-02T03:17:18;11.70;;;5.20;;
85279;SDS011;75687;40.670;21.838;2024-03-02T03:19:50;8.90;;;4.60;;
85279;SDS011;75687;40.670;21.838;2024-03-02T03:22:20;15.40;;;5.10;;
85279;SDS011;75687;40.670;21.838;2024-03-02T03:24:50;11.50;;;5.40;;
85279;SDS011;75687;40.670;21.838;2024-03-02T03:27:21;10.00;;;4.80;;
85279;SDS011;75687;40.670;21.838;2024-03-02T03:29:51;9.70;;;3.30;;
85279;SDS011;75687;40.670;21.838;2024-03-02T03:32:23;4.90;;;2.40;;
85279;SDS011;75687;40.670;21.838;2024-03-02T03:34:55;14.00;;;3.10;;
85279;SDS011;75687;40.670;21.838;2024-03-02T03:37:26;8.00;;;2.20;;
85279;SDS011;75687;40.670;21.838;2024-03-02T03:40:02;5.90;;;2.60;;
85279;SDS011;75687;40.670;21.838;2024-03-02T03:42:39;5.00;;;2.50;;
85279;SDS011;75687;40.670;21.838;2024-03-02T03:45:10;4.80;;;1.90;;
85279;SDS011;75687;40.670;21.838;2024-03-02T03:47:40;3.60;;;1.80;;
85279;SDS011;75687;40.670;21.838;2024-03-02T03:50:11;4.00;;;1.70;;
85279;SDS011;75687;40.670;21.838;2024-03-02T03:52:42;3.50;;;2.00;;
85279;SDS011;75687;40.670;21.838;2024-03-02T03:55:12;5.50;;;1.90;;
85279;SDS011;75687;40.670;21.838;2024-03-02T03:57:43;8.80;;;2.90;;
85279;SDS011;75687;40.670;21.838;2024-03-02T04:00:14;8.20;;;3.00;;
85279;SDS011;75687;40.670;21.838;2024-03-02T04:02:45;6.00;;;1.90;;
85279;SDS011;75687;40.670;21.838;2024-03-02T04:05:15;3.00;;;1.70;;
85279;SDS011;75687;40.670;21.838;2024-03-02T04:07:46;2.80;;;1.90;;
85279;SDS011;75687;40.670;21.838;2024-03-02T04:10:17;5.00;;;2.30;;
85279;SDS011;75687;40.670;21.838;2024-03-02T04:12:50;3.90;;;2.00;;
85279;SDS011;75687;40.670;21.838;2024-03-02T04:15:20;2.90;;;1.80;;
85279;SDS011;75687;40.670;21.838;2024-03-02T04:17:52;7.40;;;2.40;;
85279;SDS011;75687;40.670;21.838;2024-03-02T04:20:23;5.80;;;1.60;;
85279;SDS011;75687;40.670;21.838;2024-03-02T04:22:54;5.10;;;2.80;;
85279;SDS011;75687;40.670;21.838;2024-03-02T04:25:51;11.70;;;3.30;;
85279;SDS011;75687;40.670;21.838;2024-03-02T04:28:22;10.00;;;2.80;;
85279;SDS011;75687;40.670;21.838;2024-03-02T04:30:52;8.30;;;3.40;;
85279;SDS011;75687;40.670;21.838;2024-03-02T04:33:22;6.60;;;3.20;;
85279;SDS011;75687;40.670;21.838;2024-03-02T04:35:53;6.00;;;2.30;;
85279;SDS011;75687;40.670;21.838;2024-03-02T04:38:23;5.80;;;2.00;;
85279;SDS011;75687;40.670;21.838;2024-03-02T04:40:54;4.10;;;2.30;;
85279;SDS011;75687;40.670;21.838;2024-03-02T04:43:24;4.50;;;2.30;;
85279;SDS011;75687;40.670;21.838;2024-03-02T04:45:54;4.10;;;1.90;;
85279;SDS011;75687;40.670;21.838;2024-03-02T04:48:26;3.70;;;2.00;;
85279;SDS011;75687;40.670;21.838;2024-03-02T04:50:57;4.70;;;1.90;;
85279;SDS011;75687;40.670;21.838;2024-03-02T04:53:28;4.10;;;1.60;;
85279;SDS011;75687;40.670;21.838;2024-03-02T04:55:58;4.40;;;1.70;;
85279;SDS011;75687;40.670;21.838;2024-03-02T04:58:47;4.20;;;1.60;;
85279;SDS011;75687;40.670;21.838;2024-03-02T05:01:18;6.00;;;2.00;;
85279;SDS011;75687;40.670;21.838;2024-03-02T05:03:48;6.70;;;2.80;;
85279;SDS011;75687;40.670;21.838;2024-03-02T05:06:18;7.90;;;3.30;;
85279;SDS011;75687;40.670;21.838;2024-03-02T05:08:49;7.10;;;2.90;;
85279;SDS011;75687;40.670;21.838;2024-03-02T05:11:22;3.80;;;2.30;;
85279;SDS011;75687;40.670;21.838;2024-03-02T05:14:12;5.90;;;2.40;;
85279;SDS011;75687;40.670;21.838;2024-03-02T05:16:42;5.00;;;2.10;;
85279;SDS011;75687;40.670;21.838;2024-03-02T05:19:13;5.00;;;2.00;;
85279;SDS011;75687;40.670;21.838;2024-03-02T05:21:44;4.50;;;1.70;;
85279;SDS011;75687;40.670;21.838;2024-03-02T05:24:16;3.40;;;2.10;;
85279;SDS011;75687;40.670;21.838;2024-03-02T05:26:47;4.30;;;1.70;;
85279;SDS011;75687;40.670;21.838;2024-03-02T05:29:17;4.80;;;2.10;;
85279;SDS011;75687;40.670;21.838;2024-03-02T05:31:47;4.30;;;1.70;;
85279;SDS011;75687;40.670;21.838;2024-03-02T05:34:18;6.30;;;1.90;;
85279;SDS011;75687;40.670;21.838;2024-03-02T05:36:48;6.90;;;2.80;;
85279;SDS011;75687;40.670;21.838;2024-03-02T05:39:18;5.90;;;2.30;;
85279;SDS011;75687;40.670;21.838;2024-03-02T05:41:49;9.40;;;2.80;;
85279;SDS011;75687;40.670;21.838;2024-03-02T05:44:19;7.20;;;2.50;;
85279;SDS011;75687;40.670;21.838;2024-03-02T05:46:50;6.00;;;3.40;;
85279;SDS011;75687;40.670;21.838;2024-03-02T05:49:21;5.50;;;2.70;;
85279;SDS011;75687;40.670;21.838;2024-03-02T05:51:52;10.80;;;3.40;;
85279;SDS011;75687;40.670;21.838;2024-03-02T05:54:22;8.80;;;3.00;;
85279;SDS011;75687;40.670;21.838;2024-03-02T05:56:53;9.80;;;4.10;;
85279;SDS011;75687;40.670;21.838;2024-03-02T05:59:23;8.70;;;4.20;;
85279;SDS011;75687;40.670;21.838;2024-03-02T06:01:54;7.70;;;3.80;;
85279;SDS011;75687;40.670;21.838;2024-03-02T06:04:24;12.30;;;3.60;;
85279;SDS011;75687;40.670;21.838;2024-03-02T06:06:55;6.30;;;2.50;;
85279;SDS011;75687;40.670;21.838;2024-03-02T06:09:25;7.40;;;2.50;;
85279;SDS011;75687;40.670;21.838;2024-03-02T06:11:56;9.90;;;2.50;;
85279;SDS011;75687;40.670;21.838;2024-03-02T06:14:26;7.20;;;2.30;;
85279;SDS011;75687;40.670;21.838;2024-03-02T06:16:56;12.80;;;3.30;;
85279;SDS011;75687;40.670;21.838;2024-03-02T06:19:28;11.20;;;4.30;;
85279;SDS011;75687;40.670;21.838;2024-03-02T06:21:59;8.90;;;3.20;;
85279;SDS011;75687;40.670;21.838;2024-03-02T06:24:29;11.90;;;4.60;;
85279;SDS011;75687;40.670;21.838;2024-03-02T06:27:00;11.50;;;4.00;;
85279;SDS011;75687;40.670;21.838;2024-03-02T06:29:33;12.80;;;3.80;;
85279;SDS011;75687;40.670;21.838;2024-03-02T06:32:04;9.20;;;3.60;;
85279;SDS011;75687;40.670;21.838;2024-03-02T06:34:34;8.90;;;3.70;;
85279;SDS011;75687;40.670;21.838;2024-03-02T06:37:05;9.70;;;3.50;;
85279;SDS011;75687;40.670;21.838;2024-03-02T06:39:35;7.30;;;3.60;;
85279;SDS011;75687;40.670;21.838;2024-03-02T06:42:06;6.50;;;3.00;;
85279;SDS011;75687;40.670;21.838;2024-03-02T06:44:36;11.80;;;3.60;;
85279;SDS011;75687;40.670;21.838;2024-03-02T06:47:07;6.40;;;3.80;;
85279;SDS011;75687;40.670;21.838;2024-03-02T06:49:37;18.20;;;4.10;;
85279;SDS011;75687;40.670;21.838;2024-03-02T06:52:08;9.80;;;4.40;;
85279;SDS011;75687;40.670;21.838;2024-03-02T06:54:38;11.60;;;4.80;;
85279;SDS011;75687;40.670;21.838;2024-03-02T06:57:09;17.70;;;5.60;;
85279;SDS011;75687;40.670;21.838;2024-03-02T06:59:39;11.90;;;4.60;;
85279;SDS011;75687;40.670;21.838;2024-03-02T07:02:09;14.30;;;4.20;;
85279;SDS011;75687;40.670;21.838;2024-03-02T07:04:40;17.40;;;6.00;;
85279;SDS011;75687;40.670;21.838;2024-03-02T07:07:11;18.80;;;6.60;;
85279;SDS011;75687;40.670;21.838;2024-03-02T07:09:41;13.20;;;5.70;;
85279;SDS011;75687;40.670;21.838;2024-03-02T07:12:11;14.70;;;5.90;;
85279;SDS011;75687;40.670;21.838;2024-03-02T07:14:42;13.90;;;3.90;;
85279;SDS011;75687;40.670;21.838;2024-03-02T07:17:39;10.60;;;3.30;;
85279;SDS011;75687;40.670;21.838;2024-03-02T07:20:11;11.60;;;2.80;;
85279;SDS011;75687;40.670;21.838;2024-03-02T07:22:43;12.40;;;4.70;;
85279;SDS011;75687;40.670;21.838;2024-03-02T07:25:15;12.80;;;4.00;;
85279;SDS011;75687;40.670;21.838;2024-03-02T07:27:49;8.90;;;3.60;;
85279;SDS011;75687;40.670;21.838;2024-03-02T07:30:21;17.20;;;3.30;;
85279;SDS011;75687;40.670;21.838;2024-03-02T07:32:51;7.90;;;3.90;;
85279;SDS011;75687;40.670;21.838;2024-03-02T07:35:21;11.70;;;4.10;;
85279;SDS011;75687;40.670;21.838;2024-03-02T07:37:55;8.30;;;3.70;;
85279;SDS011;75687;40.670;21.838;2024-03-02T07:40:26;16.80;;;6.70;;
85279;SDS011;75687;40.670;21.838;2024-03-02T07:42:58;11.70;;;4.00;;
85279;SDS011;75687;40.670;21.838;2024-03-02T07:45:30;10.50;;;3.70;;
85279;SDS011;75687;40.670;21.838;2024-03-02T07:48:01;8.80;;;2.80;;
85279;SDS011;75687;40.670;21.838;2024-03-02T07:50:32;10.60;;;3.40;;
85279;SDS011;75687;40.670;21.838;2024-03-02T07:53:04;8.70;;;3.50;;
85279;SDS011;75687;40.670;21.838;2024-03-02T07:55:35;4.70;;;2.60;;
85279;SDS011;75687;40.670;21.838;2024-03-02T07:58:06;12.70;;;3.90;;
85279;SDS011;75687;40.670;21.838;2024-03-02T08:00:37;10.50;;;4.20;;
85279;SDS011;75687;40.670;21.838;2024-03-02T08:03:09;7.40;;;3.10;;
85279;SDS011;75687;40.670;21.838;2024-03-02T08:05:40;10.40;;;2.70;;
85279;SDS011;75687;40.670;21.838;2024-03-02T08:08:10;12.00;;;3.40;;
85279;SDS011;75687;40.670;21.838;2024-03-02T08:10:41;9.50;;;2.90;;
85279;SDS011;75687;40.670;21.838;2024-03-02T08:13:11;9.70;;;2.90;;
85279;SDS011;75687;40.670;21.838;2024-03-02T08:15:42;7.10;;;3.50;;
85279;SDS011;75687;40.670;21.838;2024-03-02T08:18:13;5.80;;;3.10;;
85279;SDS011;75687;40.670;21.838;2024-03-02T08:20:43;9.00;;;3.00;;
85279;SDS011;75687;40.670;21.838;2024-03-02T08:23:14;6.90;;;2.90;;
85279;SDS011;75687;40.670;21.838;2024-03-02T08:25:44;6.00;;;2.80;;
85279;SDS011;75687;40.670;21.838;2024-03-02T08:28:15;7.90;;;3.90;;
85279;SDS011;75687;40.670;21.838;2024-03-02T08:30:45;8.10;;;3.90;;
85279;SDS011;75687;40.670;21.838;2024-03-02T08:33:16;11.50;;;5.20;;
85279;SDS011;75687;40.670;21.838;2024-03-02T08:35:47;13.90;;;5.90;;
85279;SDS011;75687;40.670;21.838;2024-03-02T08:38:18;10.30;;;3.50;;
85279;SDS011;75687;40.670;21.838;2024-03-02T08:40:50;12.90;;;3.80;;
85279;SDS011;75687;40.670;21.838;2024-03-02T08:43:22;11.90;;;3.50;;
85279;SDS011;75687;40.670;21.838;2024-03-02T08:45:54;14.00;;;4.30;;
85279;SDS011;75687;40.670;21.838;2024-03-02T08:48:26;15.60;;;5.10;;
85279;SDS011;75687;40.670;21.838;2024-03-02T08:50:56;8.80;;;3.90;;
85279;SDS011;75687;40.670;21.838;2024-03-02T08:53:27;8.00;;;3.10;;
85279;SDS011;75687;40.670;21.838;2024-03-02T08:55:58;10.60;;;3.90;;
85279;SDS011;75687;40.670;21.838;2024-03-02T08:58:30;12.90;;;5.00;;
85279;SDS011;75687;40.670;21.838;2024-03-02T09:01:00;11.50;;;5.20;;
85279;SDS011;75687;40.670;21.838;2024-03-02T09:03:32;10.00;;;3.90;;
85279;SDS011;75687;40.670;21.838;2024-03-02T09:06:04;11.80;;;5.00;;
85279;SDS011;75687;40.670;21.838;2024-03-02T09:08:34;14.10;;;4.70;;
85279;SDS011;75687;40.670;21.838;2024-03-02T09:11:07;12.50;;;4.80;;
85279;SDS011;75687;40.670;21.838;2024-03-02T09:13:38;12.30;;;4.90;;
85279;SDS011;75687;40.670;21.838;2024-03-02T09:16:08;17.40;;;5.30;;
85279;SDS011;75687;40.670;21.838;2024-03-02T09:18:40;13.50;;;4.50;;
85279;SDS011;75687;40.670;21.838;2024-03-02T09:21:10;9.30;;;5.50;;
85279;SDS011;75687;40.670;21.838;2024-03-02T09:23:41;14.90;;;6.30;;
85279;SDS011;75687;40.670;21.838;2024-03-02T09:26:13;12.90;;;5.60;;
85279;SDS011;75687;40.670;21.838;2024-03-02T09:28:43;10.30;;;5.00;;
85279;SDS011;75687;40.670;21.838;2024-03-02T09:31:14;14.10;;;5.20;;
85279;SDS011;75687;40.670;21.838;2024-03-02T09:33:44;8.60;;;5.00;;
85279;SDS011;75687;40.670;21.838;2024-03-02T09:36:18;14.30;;;5.80;;
85279;SDS011;75687;40.670;21.838;2024-03-02T09:38:48;11.60;;;6.10;;
85279;SDS011;75687;40.670;21.838;2024-03-02T09:41:20;16.10;;;6.20;;
85279;SDS011;75687;40.670;21.838;2024-03-02T09:43:51;9.20;;;5.30;;
85279;SDS011;75687;40.670;21.838;2024-03-02T09:46:21;12.90;;;4.30;;
85279;SDS011;75687;40.670;21.838;2024-03-02T09:48:52;9.90;;;4.80;;
85279;SDS011;75687;40.670;21.838;2024-03-02T09:51:24;9.40;;;4.70;;
85279;SDS011;75687;40.670;21.838;2024-03-02T09:53:55;12.40;;;5.90;;
85279;SDS011;75687;40.670;21.838;2024-03-02T09:56:33;15.70;;;4.80;;
85279;SDS011;75687;40.670;21.838;2024-03-02T09:59:04;13.40;;;6.10;;
85279;SDS011;75687;40.670;21.838;2024-03-02T10:01:36;13.70;;;5.20;;
85279;SDS011;75687;40.670;21.838;2024-03-02T10:04:07;14.60;;;5.40;;
85279;SDS011;75687;40.670;21.838;2024-03-02T10:06:37;19.10;;;6.10;;
85279;SDS011;75687;40.670;21.838;2024-03-02T10:09:08;10.10;;;5.10;;
85279;SDS011;75687;40.670;21.838;2024-03-02T10:11:39;12.40;;;4.40;;
85279;SDS011;75687;40.670;21.838;2024-03-02T10:14:09;17.40;;;4.60;;
85279;SDS011;75687;40.670;21.838;2024-03-02T10:16:41;17.40;;;6.20;;
85279;SDS011;75687;40.670;21.838;2024-03-02T10:19:15;13.40;;;5.70;;
85279;SDS011;75687;40.670;21.838;2024-03-02T10:21:47;12.30;;;5.70;;
85279;SDS011;75687;40.670;21.838;2024-03-02T10:24:19;14.10;;;4.80;;
85279;SDS011;75687;40.670;21.838;2024-03-02T10:26:50;13.90;;;5.40;;
85279;SDS011;75687;40.670;21.838;2024-03-02T10:29:21;14.60;;;5.00;;
85279;SDS011;75687;40.670;21.838;2024-03-02T10:31:51;12.00;;;5.50;;
85279;SDS011;75687;40.670;21.838;2024-03-02T10:34:22;15.70;;;5.20;;
85279;SDS011;75687;40.670;21.838;2024-03-02T10:36:52;13.40;;;5.20;;
85279;SDS011;75687;40.670;21.838;2024-03-02T10:39:23;8.30;;;4.80;;
85279;SDS011;75687;40.670;21.838;2024-03-02T10:41:54;11.50;;;5.00;;
85279;SDS011;75687;40.670;21.838;2024-03-02T10:44:25;9.90;;;5.10;;
85279;SDS011;75687;40.670;21.838;2024-03-02T10:46:56;11.20;;;4.70;;
85279;SDS011;75687;40.670;21.838;2024-03-02T10:49:27;14.90;;;5.60;;
85279;SDS011;75687;40.670;21.838;2024-03-02T10:51:59;14.20;;;6.50;;
85279;SDS011;75687;40.670;21.838;2024-03-02T10:54:30;12.90;;;5.30;;
85279;SDS011;75687;40.670;21.838;2024-03-02T10:57:05;12.00;;;5.10;;
85279;SDS011;75687;40.670;21.838;2024-03-02T10:59:40;12.60;;;5.00;;
85279;SDS011;75687;40.670;21.838;2024-03-02T11:02:21;10.40;;;4.40;;
85279;SDS011;75687;40.670;21.838;2024-03-02T11:04:51;12.20;;;4.40;;
85279;SDS011;75687;40.670;21.838;2024-03-02T11:07:24;12.10;;;3.40;;
85279;SDS011;75687;40.670;21.838;2024-03-02T11:09:57;17.90;;;4.80;;
85279;SDS011;75687;40.670;21.838;2024-03-02T11:12:38;10.90;;;4.10;;
85279;SDS011;75687;40.670;21.838;2024-03-02T11:15:12;13.20;;;4.00;;
85279;SDS011;75687;40.670;21.838;2024-03-02T11:17:48;12.50;;;3.90;;
85279;SDS011;75687;40.670;21.838;2024-03-02T11:20:19;13.40;;;4.20;;
85279;SDS011;75687;40.670;21.838;2024-03-02T11:22:50;11.60;;;3.80;;
85279;SDS011;75687;40.670;21.838;2024-03-02T11:25:24;6.80;;;4.10;;
85279;SDS011;75687;40.670;21.838;2024-03-02T11:28:02;18.30;;;5.70;;
85279;SDS011;75687;40.670;21.838;2024-03-02T11:30:52;11.70;;;4.50;;
85279;SDS011;75687;40.670;21.838;2024-03-02T11:33:26;14.40;;;4.70;;
85279;SDS011;75687;40.670;21.838;2024-03-02T11:35:58;14.50;;;4.10;;
85279;SDS011;75687;40.670;21.838;2024-03-02T11:38:31;11.00;;;4.20;;
85279;SDS011;75687;40.670;21.838;2024-03-02T11:41:03;13.10;;;4.90;;
85279;SDS011;75687;40.670;21.838;2024-03-02T11:43:38;10.30;;;4.90;;
85279;SDS011;75687;40.670;21.838;2024-03-02T11:46:08;9.70;;;4.20;;
85279;SDS011;75687;40.670;21.838;2024-03-02T11:48:41;9.00;;;3.80;;
85279;SDS011;75687;40.670;21.838;2024-03-02T11:51:11;16.50;;;4.30;;
85279;SDS011;75687;40.670;21.838;2024-03-02T11:53:42;10.30;;;3.80;;
85279;SDS011;75687;40.670;21.838;2024-03-02T11:56:14;14.30;;;4.10;;
85279;SDS011;75687;40.670;21.838;2024-03-02T11:58:46;13.70;;;4.50;;
85279;SDS011;75687;40.670;21.838;2024-03-02T12:03:52;9.00;;;4.20;;
85279;SDS011;75687;40.670;21.838;2024-03-02T12:06:23;7.90;;;3.50;;
85279;SDS011;75687;40.670;21.838;2024-03-02T12:08:54;6.80;;;2.70;;
85279;SDS011;75687;40.670;21.838;2024-03-02T12:11:24;10.20;;;3.30;;
85279;SDS011;75687;40.670;21.838;2024-03-02T12:13:57;11.00;;;3.30;;
85279;SDS011;75687;40.670;21.838;2024-03-02T12:16:28;7.60;;;3.30;;
85279;SDS011;75687;40.670;21.838;2024-03-02T12:18:59;10.80;;;3.90;;
85279;SDS011;75687;40.670;21.838;2024-03-02T12:21:30;8.30;;;3.80;;
85279;SDS011;75687;40.670;21.838;2024-03-02T12:24:01;10.60;;;3.30;;
85279;SDS011;75687;40.670;21.838;2024-03-02T12:26:32;10.00;;;3.10;;
85279;SDS011;75687;40.670;21.838;2024-03-02T12:29:02;11.60;;;3.20;;
85279;SDS011;75687;40.670;21.838;2024-03-02T12:31:33;9.20;;;3.20;;
85279;SDS011;75687;40.670;21.838;2024-03-02T12:34:04;10.10;;;4.10;;
85279;SDS011;75687;40.670;21.838;2024-03-02T12:36:37;8.70;;;3.10;;
85279;SDS011;75687;40.670;21.838;2024-03-02T12:39:09;7.30;;;2.90;;
85279;SDS011;75687;40.670;21.838;2024-03-02T12:41:40;18.30;;;6.60;;
85279;SDS011;75687;40.670;21.838;2024-03-02T12:44:11;10.40;;;4.20;;
85279;SDS011;75687;40.670;21.838;2024-03-02T12:46:42;13.70;;;4.00;;
85279;SDS011;75687;40.670;21.838;2024-03-02T12:49:13;13.10;;;4.90;;
85279;SDS011;75687;40.670;21.838;2024-03-02T12:51:44;8.60;;;3.20;;
85279;SDS011;75687;40.670;21.838;2024-03-02T12:54:21;5.50;;;2.90;;
85279;SDS011;75687;40.670;21.838;2024-03-02T12:56:53;9.40;;;3.20;;
85279;SDS011;75687;40.670;21.838;2024-03-02T12:59:24;8.80;;;3.90;;
85279;SDS011;75687;40.670;21.838;2024-03-02T13:01:55;8.90;;;2.50;;
85279;SDS011;75687;40.670;21.838;2024-03-02T13:04:26;10.40;;;3.10;;
85279;SDS011;75687;40.670;21.838;2024-03-02T13:06:59;10.10;;;3.10;;
85279;SDS011;75687;40.670;21.838;2024-03-02T13:09:30;6.10;;;2.60;;
85279;SDS011;75687;40.670;21.838;2024-03-02T13:12:01;6.70;;;2.90;;
85279;SDS011;75687;40.670;21.838;2024-03-02T13:14:33;7.90;;;2.20;;
85279;SDS011;75687;40.670;21.838;2024-03-02T13:17:04;7.90;;;3.00;;
85279;SDS011;75687;40.670;21.838;2024-03-02T13:19:34;11.40;;;2.80;;
85279;SDS011;75687;40.670;21.838;2024-03-02T13:22:05;7.40;;;3.50;;
85279;SDS011;75687;40.670;21.838;2024-03-02T13:24:35;6.50;;;2.70;;
85279;SDS011;75687;40.670;21.838;2024-03-02T13:27:13;8.80;;;2.80;;
85279;SDS011;75687;40.670;21.838;2024-03-02T13:29:44;6.50;;;3.20;;
85279;SDS011;75687;40.670;21.838;2024-03-02T13:32:15;11.00;;;3.00;;
85279;SDS011;75687;40.670;21.838;2024-03-02T13:34:48;7.40;;;2.90;;
85279;SDS011;75687;40.670;21.838;2024-03-02T13:37:19;7.20;;;2.50;;
85279;SDS011;75687;40.670;21.838;2024-03-02T13:39:50;4.90;;;2.30;;
85279;SDS011;75687;40.670;21.838;2024-03-02T13:42:20;7.50;;;3.80;;
85279;SDS011;75687;40.670;21.838;2024-03-02T13:44:52;8.70;;;2.60;;
85279;SDS011;75687;40.670;21.838;2024-03-02T13:47:23;6.80;;;2.70;;
85279;SDS011;75687;40.670;21.838;2024-03-02T13:49:54;10.60;;;3.20;;
85279;SDS011;75687;40.670;21.838;2024-03-02T13:52:24;12.40;;;4.20;;
85279;SDS011;75687;40.670;21.838;2024-03-02T13:54:56;13.70;;;4.00;;
85279;SDS011;75687;40.670;21.838;2024-03-02T13:57:27;8.50;;;3.50;;
85279;SDS011;75687;40.670;21.838;2024-03-02T13:59:58;11.50;;;5.10;;
85279;SDS011;75687;40.670;21.838;2024-03-02T14:02:39;13.70;;;4.10;;
85279;SDS011;75687;40.670;21.838;2024-03-02T14:05:10;11.00;;;3.30;;
85279;SDS011;75687;40.670;21.838;2024-03-02T14:07:42;8.80;;;3.30;;
85279;SDS011;75687;40.670;21.838;2024-03-02T14:10:12;5.60;;;2.80;;
85279;SDS011;75687;40.670;21.838;2024-03-02T14:12:43;11.50;;;2.90;;
85279;SDS011;75687;40.670;21.838;2024-03-02T14:15:14;8.40;;;3.50;;
85279;SDS011;75687;40.670;21.838;2024-03-02T14:17:46;7.70;;;3.00;;
85279;SDS011;75687;40.670;21.838;2024-03-02T14:20:17;9.00;;;3.10;;
85279;SDS011;75687;40.670;21.838;2024-03-02T14:22:50;11.20;;;4.30;;
85279;SDS011;75687;40.670;21.838;2024-03-02T14:25:20;12.30;;;3.30;;
85279;SDS011;75687;40.670;21.838;2024-03-02T14:27:51;8.90;;;3.30;;
85279;SDS011;75687;40.670;21.838;2024-03-02T14:30:55;14.40;;;2.80;;
85279;SDS011;75687;40.670;21.838;2024-03-02T14:33:25;8.20;;;4.40;;
85279;SDS011;75687;40.670;21.838;2024-03-02T14:35:56;9.30;;;3.00;;
85279;SDS011;75687;40.670;21.838;2024-03-02T14:38:27;7.30;;;3.20;;
85279;SDS011;75687;40.670;21.838;2024-03-02T14:40:59;4.70;;;3.10;;
85279;SDS011;75687;40.670;21.838;2024-03-02T14:43:31;6.40;;;3.00;;
85279;SDS011;75687;40.670;21.838;2024-03-02T14:46:02;7.90;;;2.70;;
85279;SDS011;75687;40.670;21.838;2024-03-02T14:48:33;7.90;;;2.90;;
85279;SDS011;75687;40.670;21.838;2024-03-02T14:51:04;7.80;;;2.70;;
85279;SDS011;75687;40.670;21.838;2024-03-02T14:53:34;8.70;;;3.40;;
85279;SDS011;75687;40.670;21.838;2024-03-02T14:56:06;10.50;;;3.50;;